This is the latest recevied weather packets stored in our database for station/object EFTP. If no packets are shown the sender has not sent any weather packets the latest 1 day(s).
| Time | Temp. | Humidity | Pressure | Rain* | Wind** | Luminosity | Snow |
|---|---|---|---|---|---|---|---|
| 1778024841 | 0° C | 86% | 1008.1 hPa | - | 3.58 m/s, 230° | - | - |
| 1778023641 | 0° C | 86% | 1008.2 hPa | - | 3.58 m/s, 234° | - | - |
| 1778022441 | -0.56° C | 85% | 1008.1 hPa | - | 3.58 m/s, 249° | - | - |
| 1778021240 | 0° C | 83% | 1008 hPa | - | 2.68 m/s, 259° | - | - |
| 1778020040 | 1.67° C | 78% | 1007.8 hPa | - | 3.13 m/s, 263° | - | - |
| 1778018841 | 2.22° C | 74% | 1007.7 hPa | - | 4.02 m/s, 265° | - | - |
| 1778017641 | 2.22° C | 72% | 1007.7 hPa | - | 2.68 m/s, 267° | - | - |
| 1778016441 | 2.78° C | 68% | 1007.6 hPa | - | 3.58 m/s, 266° | - | - |
| 1778015240 | 2.78° C | 65% | 1007.4 hPa | - | 4.02 m/s, 273° | - | - |
| 1778014040 | 3.33° C | 63% | 1007.2 hPa | - | 4.47 m/s, 272° | - | - |
| 1778012841 | 3.89° C | 60% | 1007 hPa | - | 4.47 m/s, 278° | - | - |
| 1778011640 | 3.89° C | 60% | 1006.9 hPa | - | 4.92 m/s, 275° | - | - |
| 1778010440 | 4.44° C | 56% | 1006.8 hPa | - | 4.92 m/s, 277° | - | - |
| 1778009240 | 4.44° C | 54% | 1006.8 hPa | - | 4.02 m/s, 271° | - | - |
| 1778008040 | 5° C | 52% | 1006.6 hPa | - | 4.02 m/s, 268° | - | - |
| 1778006840 | 5° C | 49% | 1006.3 hPa | - | 4.47 m/s, 271° | - | - |
| 1778005640 | 5.56° C | 46% | 1006 hPa | - | 4.92 m/s, 272° | - | - |
| 1778004439 | 6.11° C | 46% | 1005.8 hPa | - | 5.81 m/s, 270° | - | - |
| 1778003239 | 6.67° C | 47% | 1005.6 hPa | - | 5.81 m/s, 272° | - | - |
| 1778002039 | 6.67° C | 46% | 1005.5 hPa | - | 5.36 m/s, 276° | - | - |
| 1778000839 | 7.22° C | 46% | 1005.4 hPa | - | 5.81 m/s, 282° | - | - |
| 1777999639 | 7.78° C | 45% | 1005.1 hPa | - | 5.81 m/s, 271° | - | - |
| 1777998439 | 7.78° C | 43% | 1005.1 hPa | - | 4.47 m/s, 284° | - | - |
| 1777997239 | 7.22° C | 45% | 1004.9 hPa | - | 5.36 m/s, 270° | - | - |
| 1777996039 | 7.78° C | 43% | 1004.8 hPa | - | 4.92 m/s, 260° | - | - |
* Rain since midnight (hover to see other rain measurements)
** Current wind speed in m/s (hover to see current wind gust speed)